Time;durP1;ratioP1;P1;durP2;ratioP2;P2;SDS_P1;SDS_P2;PMS_P1;PMS_P2;Temp;Humidity;BMP_temperature;BMP_pressure;BME280_temperature;BME280_humidity;BME280_pressure;Samples;Min_cycle;Max_cycle;Signal;HPM_P1;HPM_P2
2021/08/23 00:00:07;;;;;;;4.25;1.60;;;;;;;15.26;52.75;102076.94;5045529;28;20040;-70
2021/08/23 00:02:33;;;;;;;3.65;1.02;;;;;;;15.24;52.71;102076.16;5052927;28;20490;-70
2021/08/23 00:04:59;;;;;;;3.97;1.67;;;;;;;15.29;52.71;102078.59;5055585;28;20037;-71
2021/08/23 00:07:24;;;;;;;2.58;1.00;;;;;;;15.26;52.69;102083.97;5068037;28;20125;-71
2021/08/23 00:09:50;;;;;;;2.92;1.42;;;;;;;15.29;52.56;102078.59;5050528;28;20405;-70
2021/08/23 00:12:16;;;;;;;3.10;1.10;;;;;;;15.29;52.56;102081.22;5058438;28;20032;-70
2021/08/23 00:14:42;;;;;;;5.20;1.83;;;;;;;15.32;52.36;102089.84;5051148;28;20074;-70
2021/08/23 00:17:08;;;;;;;2.30;1.00;;;;;;;15.30;52.62;102085.56;5068400;28;20582;-70
2021/08/23 00:19:33;;;;;;;1.60;0.63;;;;;;;15.31;52.51;102088.16;5052287;28;20110;-69
2021/08/23 00:22:07;;;;;;;4.38;1.38;;;;;;;15.36;52.34;102083.53;5052696;28;20059;-69
2021/08/23 00:24:33;;;;;;;5.25;2.00;;;;;;;15.26;52.51;102090.13;5052669;28;20168;-70
2021/08/23 00:26:58;;;;;;;3.90;1.98;;;;;;;15.21;52.65;102080.66;5052956;28;20672;-70
2021/08/23 00:29:24;;;;;;;4.05;1.65;;;;;;;15.27;52.67;102083.06;5058082;28;20188;-69
2021/08/23 00:31:51;;;;;;;6.10;1.45;;;;;;;15.22;52.87;102087.66;5051377;28;20036;-70
2021/08/23 00:34:17;;;;;;;4.10;1.58;;;;;;;15.25;52.98;102082.28;5053519;28;20040;-70
2021/08/23 00:36:43;;;;;;;4.55;1.35;;;;;;;15.24;52.66;102085.81;5059319;28;20500;-70
2021/08/23 00:39:10;;;;;;;3.22;2.17;;;;;;;15.31;52.49;102087.28;5049881;28;20171;-69
2021/08/23 00:41:37;;;;;;;3.80;1.40;;;;;;;15.35;52.71;102088.88;5053752;28;20037;-70
2021/08/23 00:44:04;;;;;;;3.13;1.38;;;;;;;15.44;52.53;102085.00;5050937;28;20032;-69
2021/08/23 00:46:30;;;;;;;4.57;1.20;;;;;;;15.47;52.14;102090.16;5053338;28;20237;-70
2021/08/23 00:48:55;;;;;;;5.80;1.90;;;;;;;15.50;52.20;102097.91;5052573;28;20066;-69
2021/08/23 00:51:21;;;;;;;3.65;1.27;;;;;;;15.49;51.93;102096.22;5051705;28;20036;-69
2021/08/23 00:53:48;;;;;;;6.47;1.75;;;;;;;15.49;51.93;102086.53;5051244;28;20185;-71
2021/08/23 00:56:15;;;;;;;5.15;1.33;;;;;;;15.54;51.97;102083.69;5045792;28;20109;-70
2021/08/23 00:58:41;;;;;;;4.75;1.55;;;;;;;15.42;52.35;102089.50;5054009;28;20044;-70
2021/08/23 01:01:11;;;;;;;6.28;2.08;;;;;;;15.40;52.36;102081.66;5071944;28;20036;-70
2021/08/23 01:03:53;;;;;;;4.15;1.58;;;;;;;15.47;52.29;102091.00;5058557;28;20418;-72
2021/08/23 01:06:20;;;;;;;5.05;1.73;;;;;;;15.47;52.18;102093.63;5054479;28;20045;-70
2021/08/23 01:08:47;;;;;;;6.03;2.78;;;;;;;15.40;52.65;102097.44;5054944;28;20033;-70
2021/08/23 01:11:15;;;;;;;4.55;2.13;;;;;;;15.18;53.02;102103.53;5054777;28;20048;-70
2021/08/23 01:13:49;;;;;;;4.45;1.70;;;;;;;15.39;52.58;102098.34;5057993;28;20021;-71
2021/08/23 01:16:15;;;;;;;6.28;2.15;;;;;;;15.48;52.25;102100.63;5055470;28;20037;-70
2021/08/23 01:18:43;;;;;;;5.18;1.65;;;;;;;15.53;51.97;102097.81;5052985;28;21075;-69
2021/08/23 01:21:11;;;;;;;6.00;3.50;;;;;;;15.49;51.97;102102.34;5061178;28;20518;-70
2021/08/23 01:23:42;;;;;;;6.47;2.40;;;;;;;15.30;52.76;102106.63;5053485;28;20151;-71
2021/08/23 01:26:09;;;;;;;2.80;2.30;;;;;;;15.45;52.39;102108.66;5051597;28;20113;-70
2021/08/23 01:28:48;;;;;;;8.57;3.47;;;;;;;15.38;52.41;102109.81;5056653;28;20059;-71
2021/08/23 01:31:13;;;;;;;6.90;2.75;;;;;;;15.35;52.86;102120.50;5060522;28;20033;-70
2021/08/23 01:33:43;;;;;;;7.43;2.92;;;;;;;15.37;52.85;102121.25;5056276;28;20175;-69
2021/08/23 01:36:09;;;;;;;10.48;3.78;;;;;;;15.37;52.85;102113.38;5063046;28;20035;-69
2021/08/23 01:38:35;;;;;;;7.70;2.85;;;;;;;15.43;52.41;102118.38;5056523;28;20773;-69
2021/08/23 01:41:05;;;;;;;3.72;2.95;;;;;;;15.16;53.37;102126.44;5053926;28;20456;-70
2021/08/23 01:43:31;;;;;;;5.55;3.63;;;;;;;15.28;52.95;102124.28;5053176;28;20025;-69
2021/08/23 01:45:56;;;;;;;7.47;2.97;;;;;;;15.29;52.97;102128.63;5070060;28;20043;-69
2021/08/23 01:48:22;;;;;;;4.43;3.20;;;;;;;15.40;52.90;102128.22;5056594;28;20078;-69
2021/08/23 01:50:48;;;;;;;4.47;2.70;;;;;;;15.42;52.56;102129.00;5053241;28;20029;-69
2021/08/23 01:53:16;;;;;;;4.60;2.72;;;;;;;15.38;52.96;102125.63;5056763;28;20166;-69
2021/08/23 01:55:41;;;;;;;4.78;2.67;;;;;;;15.47;52.32;102129.66;5070976;28;20029;-69
2021/08/23 01:58:07;;;;;;;3.50;2.50;;;;;;;15.46;52.51;102126.19;5053225;28;20043;-69
2021/08/23 02:00:32;;;;;;;7.13;3.03;;;;;;;15.30;52.78;102132.97;5046659;28;20106;-69
2021/08/23 02:02:58;;;;;;;8.85;2.53;;;;;;;15.39;52.60;102127.34;5070636;28;20383;-68
2021/08/23 02:05:23;;;;;;;7.18;2.30;;;;;;;15.41;52.63;102125.50;5053405;28;20043;-69
2021/08/23 02:07:49;;;;;;;8.80;2.58;;;;;;;15.32;52.51;102131.13;5054324;28;20035;-69
2021/08/23 02:10:17;;;;;;;5.80;2.60;;;;;;;15.45;52.20;102132.34;5056275;28;20028;-69
2021/08/23 02:12:42;;;;;;;6.90;2.83;;;;;;;15.50;52.10;102135.66;5072553;28;20604;-69
2021/08/23 02:15:08;;;;;;;3.90;2.20;;;;;;;15.47;52.33;102125.25;5058921;28;20029;-69
2021/08/23 02:17:34;;;;;;;6.40;1.60;;;;;;;15.64;51.90;102127.19;5070839;28;20507;-69
2021/08/23 02:19:59;;;;;;;10.82;2.58;;;;;;;15.62;51.95;102130.78;5061145;28;20167;-69
2021/08/23 02:22:25;;;;;;;4.88;2.00;;;;;;;15.49;52.47;102122.56;5053645;28;20029;-69
2021/08/23 02:24:50;;;;;;;3.65;1.95;;;;;;;15.49;52.12;102128.69;5072818;28;20033;-69
2021/08/23 02:27:16;;;;;;;4.63;2.42;;;;;;;15.45;52.35;102136.78;5073028;28;20029;-69
2021/08/23 02:29:41;;;;;;;8.70;2.47;;;;;;;15.31;52.81;102140.81;5053827;28;20120;-70
2021/08/23 02:32:07;;;;;;;8.65;2.75;;;;;;;15.27;53.04;102136.59;5044509;28;20036;-69
2021/08/23 02:34:32;;;;;;;5.90;1.80;;;;;;;15.25;53.09;102140.22;5061534;28;20102;-69
2021/08/23 02:36:58;;;;;;;3.50;2.15;;;;;;;15.42;52.55;102150.94;5052848;28;20037;-70
2021/08/23 02:39:23;;;;;;;6.28;2.75;;;;;;;15.45;52.55;102150.81;5053243;28;20040;-69
2021/08/23 02:41:53;;;;;;;6.93;2.13;;;;;;;15.32;53.09;102146.94;5056186;28;20036;-69
2021/08/23 02:44:20;;;;;;;4.38;2.08;;;;;;;15.58;52.41;102146.75;5040695;28;20048;-69
2021/08/23 02:46:45;;;;;;;4.68;2.05;;;;;;;15.38;53.08;102157.25;5051085;28;20044;-69
2021/08/23 02:49:10;;;;;;;8.98;2.53;;;;;;;15.43;52.89;102155.28;5054532;28;20063;-69
2021/08/23 02:51:36;;;;;;;3.83;1.65;;;;;;;15.37;53.10;102161.66;5045047;28;20668;-69
2021/08/23 02:54:01;;;;;;;2.83;1.70;;;;;;;15.37;52.64;102160.78;5058749;28;20564;-70
2021/08/23 02:56:27;;;;;;;6.40;2.33;;;;;;;15.17;53.55;102165.06;5055813;28;20246;-69
2021/08/23 02:58:52;;;;;;;9.23;1.90;;;;;;;15.06;53.61;102166.34;5069593;28;20024;-69
2021/08/23 03:01:18;;;;;;;2.95;1.85;;;;;;;15.06;53.52;102167.25;5069556;28;20110;-68
2021/08/23 03:03:43;;;;;;;5.97;2.40;;;;;;;14.82;54.39;102178.69;5054497;28;20025;-69
2021/08/23 03:06:12;;;;;;;6.75;2.20;;;;;;;14.75;54.44;102168.41;5054387;28;20464;-69
2021/08/23 03:08:39;;;;;;;2.97;1.58;;;;;;;14.65;54.86;102176.69;5057170;28;20486;-69
2021/08/23 03:11:14;;;;;;;3.78;2.42;;;;;;;14.74;54.38;102171.91;5055421;28;20032;-68
2021/08/23 03:13:40;;;;;;;3.95;1.88;;;;;;;;;;5067863;28;20679;-69
2021/08/23 03:16:07;;;;;;;3.83;2.20;;;;;;;14.72;54.59;102181.69;5060732;28;20502;-69
2021/08/23 03:18:33;;;;;;;4.32;2.30;;;;;;;14.68;54.64;102182.69;5055064;28;20152;-69
2021/08/23 03:20:59;;;;;;;4.22;2.20;;;;;;;14.60;54.78;102190.00;5056480;28;20112;-69
2021/08/23 03:23:24;;;;;;;5.72;2.08;;;;;;;14.61;54.97;102191.72;5055221;28;20048;-69
2021/08/23 03:25:50;;;;;;;9.32;2.88;;;;;;;14.72;54.79;102193.94;5054483;28;20039;-69
2021/08/23 03:28:17;;;;;;;5.10;2.80;;;;;;;14.67;54.51;102195.91;5053826;28;20115;-69
2021/08/23 03:30:42;;;;;;;5.82;2.13;;;;;;;14.63;54.60;102189.88;5054301;28;20487;-69
2021/08/23 03:33:08;;;;;;;7.95;2.65;;;;;;;14.38;55.59;102189.03;5069846;28;20025;-69
2021/08/23 03:35:34;;;;;;;6.72;1.95;;;;;;;14.57;54.50;102192.75;5057205;28;20047;-69
2021/08/23 03:38:01;;;;;;;7.93;2.55;;;;;;;14.45;54.78;102191.41;5056464;28;20391;-69
2021/08/23 03:40:28;;;;;;;3.40;2.42;;;;;;;14.27;55.07;102192.88;5052894;28;20060;-69
2021/08/23 03:42:53;;;;;;;5.18;2.45;;;;;;;14.21;55.27;102193.13;5053326;28;20037;-69
2021/08/23 03:45:19;;;;;;;6.75;2.40;;;;;;;14.04;55.57;102190.19;5050413;28;20105;-69
2021/08/23 03:47:44;;;;;;;7.18;2.30;;;;;;;14.13;55.27;102197.75;5056229;28;20028;-69
2021/08/23 03:50:10;;;;;;;6.50;2.50;;;;;;;14.04;55.37;102200.72;5055698;28;20032;-69
2021/08/23 03:52:36;;;;;;;4.47;2.40;;;;;;;13.98;55.64;102200.91;5056370;28;20102;-68
2021/08/23 03:55:02;;;;;;;5.18;2.35;;;;;;;13.93;55.57;102194.03;5058535;28;20051;-69
2021/08/23 03:57:28;;;;;;;7.85;2.30;;;;;;;13.71;56.31;102208.78;5058312;28;20047;-68
2021/08/23 03:59:53;;;;;;;5.90;3.30;;;;;;;13.91;55.79;102206.34;5055120;28;20115;-69
2021/08/23 04:02:19;;;;;;;3.80;2.65;;;;;;;13.81;55.85;102204.97;5055539;28;20037;-69
2021/08/23 04:04:44;;;;;;;9.27;2.13;;;;;;;13.82;55.86;102211.91;5060812;28;20052;-68
2021/08/23 04:07:10;;;;;;;7.30;2.63;;;;;;;13.75;55.83;102217.44;5056379;28;20029;-69
2021/08/23 04:09:35;;;;;;;5.75;2.83;;;;;;;13.75;55.67;102215.66;5058413;28;20652;-68
2021/08/23 04:12:01;;;;;;;10.93;2.40;;;;;;;13.70;55.94;102222.84;5041063;28;20064;-68
2021/08/23 04:14:27;;;;;;;9.60;2.33;;;;;;;13.67;55.80;102226.44;5054653;28;20029;-68
2021/08/23 04:16:53;;;;;;;7.40;2.05;;;;;;;13.61;55.84;102229.25;5054733;28;20489;-68
2021/08/23 04:19:19;;;;;;;4.28;1.70;;;;;;;13.42;56.31;102236.78;5055878;28;20033;-68
2021/08/23 04:21:44;;;;;;;6.88;1.38;;;;;;;13.45;55.83;102241.06;5061944;28;20036;-68
2021/08/23 04:24:10;;;;;;;4.15;1.23;;;;;;;13.59;55.43;102243.34;5053538;28;20528;-68
2021/08/23 04:26:35;;;;;;;6.97;1.88;;;;;;;13.55;55.25;102252.19;5070405;28;20050;-68
2021/08/23 04:29:01;;;;;;;4.03;1.38;;;;;;;13.48;55.29;102252.34;5054655;28;20109;-67
2021/08/23 04:31:28;;;;;;;5.75;1.42;;;;;;;13.44;55.64;102255.97;5053406;28;20032;-68
2021/08/23 04:33:53;;;;;;;5.03;1.92;;;;;;;13.42;55.74;102259.56;5058634;28;20080;-68
2021/08/23 04:36:19;;;;;;;5.95;1.55;;;;;;;13.54;55.24;102251.31;5073720;28;20132;-68
2021/08/23 04:38:44;;;;;;;4.45;1.50;;;;;;;13.63;54.98;102260.69;5060047;28;20032;-69
2021/08/23 04:41:10;;;;;;;3.30;1.20;;;;;;;13.68;54.84;102262.28;5061141;28;20067;-69
2021/08/23 04:43:36;;;;;;;3.78;1.58;;;;;;;13.68;54.54;102253.56;5063033;28;20032;-69
2021/08/23 04:46:01;;;;;;;4.57;1.45;;;;;;;13.60;55.17;102255.56;5060321;28;20343;-69
2021/08/23 04:48:28;;;;;;;8.63;2.13;;;;;;;13.65;54.83;102262.41;5058503;28;20036;-69
2021/08/23 04:50:54;;;;;;;4.68;0.93;;;;;;;13.61;54.73;102271.28;5071535;28;20551;-69
2021/08/23 04:53:19;;;;;;;3.92;1.20;;;;;;;13.65;54.91;102267.66;5056580;28;20701;-68
2021/08/23 04:55:45;;;;;;;6.70;1.67;;;;;;;13.71;54.25;102277.09;5059661;28;20056;-69
2021/08/23 04:58:10;;;;;;;3.33;1.08;;;;;;;13.69;54.49;102269.25;5073630;28;20080;-71
2021/08/23 05:00:36;;;;;;;6.53;1.40;;;;;;;13.71;54.45;102272.69;5058443;28;20523;-69
2021/08/23 05:03:01;;;;;;;5.35;1.38;;;;;;;13.71;54.42;102277.94;5058820;28;20107;-69
2021/08/23 05:05:27;;;;;;;2.25;1.35;;;;;;;13.73;54.51;102273.50;5056366;28;20624;-69
2021/08/23 05:07:52;;;;;;;5.10;1.10;;;;;;;13.93;53.99;102278.13;5053829;28;20028;-69
2021/08/23 05:10:24;;;;;;;2.35;1.08;;;;;;;14.01;53.82;102279.66;5056800;28;20043;-69
2021/08/23 05:12:54;;;;;;;1.50;1.05;;;;;;;13.92;53.91;102284.31;5057277;28;20201;-69
2021/08/23 05:15:19;;;;;;;4.90;1.33;;;;;;;13.87;54.01;102288.84;5067771;28;20037;-69
2021/08/23 05:17:45;;;;;;;3.63;1.15;;;;;;;13.86;53.82;102292.38;5061269;28;20032;-69
2021/08/23 05:20:11;;;;;;;2.10;0.80;;;;;;;14.07;53.50;102292.59;5055667;28;20040;-69
2021/08/23 05:22:37;;;;;;;3.80;1.08;;;;;;;14.64;52.42;102290.75;5055782;28;20082;-69
2021/08/23 05:25:03;;;;;;;1.42;0.65;;;;;;;15.16;50.77;102292.34;5055247;28;20047;-69
2021/08/23 05:27:29;;;;;;;2.17;0.40;;;;;;;15.86;48.50;102295.84;5055062;28;20032;-69
2021/08/23 05:29:54;;;;;;;6.82;0.40;;;;;;;16.80;46.04;102290.22;5056839;28;20056;-69
2021/08/23 05:32:20;;;;;;;1.25;0.57;;;;;;;17.46;44.43;102294.28;5067706;28;20040;-68
2021/08/23 05:34:46;;;;;;;3.28;0.40;;;;;;;18.77;41.98;102291.38;5055656;28;20051;-69
2021/08/23 05:37:12;;;;;;;1.52;0.40;;;;;;;19.30;40.30;102295.63;5068542;28;20029;-69
2021/08/23 05:39:37;;;;;;;3.53;0.60;;;;;;;19.87;40.23;102294.28;5055131;28;20044;-69
2021/08/23 05:42:03;;;;;;;1.75;0.70;;;;;;;20.19;38.43;102299.50;5057802;28;20028;-69
2021/08/23 05:44:28;;;;;;;1.38;0.38;;;;;;;20.33;37.67;102308.41;5054700;28;20036;-69
2021/08/23 05:46:54;;;;;;;0.73;0.40;;;;;;;20.56;36.79;102313.31;5055857;28;20041;-69
2021/08/23 05:49:19;;;;;;;1.45;0.38;;;;;;;20.43;37.59;102306.06;5057593;28;20029;-69
2021/08/23 05:51:45;;;;;;;1.10;0.77;;;;;;;21.09;36.41;102301.22;5056006;28;20036;-69
2021/08/23 05:54:10;;;;;;;2.78;0.30;;;;;;;21.70;34.83;102313.28;5057890;28;20056;-69
2021/08/23 05:56:40;;;;;;;1.35;0.88;;;;;;;22.21;34.31;102314.47;5054987;28;20106;-69
2021/08/23 05:59:07;;;;;;;3.60;0.28;;;;;;;21.97;35.03;102312.44;5055968;28;20767;-69
2021/08/23 06:01:32;;;;;;;2.90;0.30;;;;;;;22.19;33.72;102322.53;5064488;28;20033;-70
2021/08/23 06:03:58;;;;;;;2.38;0.32;;;;;;;22.74;34.23;102325.94;5059118;28;20043;-69
2021/08/23 06:06:23;;;;;;;2.22;0.60;;;;;;;23.18;31.02;102322.78;5073619;28;20116;-69
2021/08/23 06:08:49;;;;;;;1.30;0.20;;;;;;;23.70;30.83;102328.91;5071575;28;20034;-70
2021/08/23 06:11:14;;;;;;;1.13;0.50;;;;;;;23.62;31.57;102333.94;5065990;28;20040;-70
2021/08/23 06:13:40;;;;;;;1.77;0.35;;;;;;;23.65;30.32;102333.69;5063804;28;20024;-69
2021/08/23 06:16:05;;;;;;;2.92;0.20;;;;;;;23.27;31.34;102334.66;5040524;28;20392;-70
2021/08/23 06:18:31;;;;;;;2.78;0.52;;;;;;;23.99;31.01;102336.56;5055626;28;20094;-69
2021/08/23 06:20:59;;;;;;;3.05;0.20;;;;;;;24.23;30.68;102340.06;5057804;28;20037;-70
2021/08/23 06:23:25;;;;;;;9.85;0.38;;;;;;;24.28;29.50;102336.19;5075012;28;20066;-69
2021/08/23 06:25:51;;;;;;;3.28;0.20;;;;;;;24.70;28.51;102333.91;5055001;28;20058;-69
2021/08/23 06:28:19;;;;;;;1.60;0.40;;;;;;;24.93;28.11;102337.44;5055825;28;20036;-69
2021/08/23 06:30:45;;;;;;;1.27;0.30;;;;;;;24.97;28.32;102339.81;5053838;28;20036;-70
2021/08/23 06:33:11;;;;;;;1.45;0.30;;;;;;;25.16;28.18;102338.34;5058534;28;20039;-70
2021/08/23 06:35:36;;;;;;;1.38;0.43;;;;;;;25.51;26.50;102345.31;5039229;28;20029;-69
2021/08/23 06:38:02;;;;;;;4.57;0.38;;;;;;;25.44;27.63;102347.66;5053928;28;20032;-70
2021/08/23 06:40:28;;;;;;;0.73;0.20;;;;;;;26.34;26.14;102352.78;5056068;28;20071;-69
2021/08/23 06:42:54;;;;;;;1.67;0.20;;;;;;;26.18;26.92;102352.34;5071752;28;20115;-69
2021/08/23 06:45:19;;;;;;;1.92;0.40;;;;;;;26.48;25.72;102359.63;5073691;28;20120;-68
2021/08/23 06:47:45;;;;;;;1.23;0.28;;;;;;;26.48;25.86;102354.25;5055812;28;20032;-68
2021/08/23 06:50:10;;;;;;;1.50;0.20;;;;;;;26.45;25.13;102360.75;5058375;28;20116;-68
2021/08/23 06:52:37;;;;;;;5.30;0.77;;;;;;;26.60;24.96;102365.78;5054262;28;20020;-69
2021/08/23 06:55:09;;;;;;;3.38;0.40;;;;;;;27.21;24.19;102351.59;5052231;28;20036;-68
2021/08/23 06:57:34;;;;;;;2.45;0.57;;;;;;;28.08;23.86;102353.59;5068809;28;20079;-68
2021/08/23 07:00:00;;;;;;;5.50;0.28;;;;;;;28.04;25.37;102368.28;5069336;28;20088;-68
2021/08/23 07:02:25;;;;;;;5.05;0.50;;;;;;;27.42;23.47;102365.75;5067632;28;20130;-68
2021/08/23 07:04:51;;;;;;;1.20;0.20;;;;;;;27.10;24.19;102374.84;5068909;28;20043;-68
2021/08/23 07:07:16;;;;;;;0.57;0.20;;;;;;;27.80;23.22;102374.91;5056511;28;20033;-69
2021/08/23 07:09:43;;;;;;;2.55;0.90;;;;;;;27.90;22.88;102377.63;5068910;28;20394;-69
2021/08/23 07:12:09;;;;;;;1.73;0.30;;;;;;;27.20;23.57;102380.25;5054063;28;20028;-68
2021/08/23 07:14:36;;;;;;;0.70;0.20;;;;;;;26.86;24.31;102382.31;5052383;28;20082;-68
2021/08/23 07:17:07;;;;;;;2.78;0.20;;;;;;;27.64;22.82;102385.34;5060910;28;20398;-69
2021/08/23 07:19:33;;;;;;;0.93;0.35;;;;;;;27.91;22.48;102382.84;5053395;28;20029;-69
2021/08/23 07:21:59;;;;;;;3.40;0.47;;;;;;;26.97;23.45;102389.44;5067526;28;20955;-68
2021/08/23 07:24:25;;;;;;;4.72;0.22;;;;;;;27.52;22.79;102387.28;5041536;28;20040;-68
2021/08/23 07:26:51;;;;;;;0.80;0.20;;;;;;;28.49;22.19;102386.53;5053918;28;20044;-68
2021/08/23 07:29:17;;;;;;;2.20;0.20;;;;;;;28.41;22.16;102394.47;5054641;28;20078;-68
2021/08/23 07:31:43;;;;;;;1.33;0.30;;;;;;;27.39;23.01;102386.69;5057742;28;20898;-68
2021/08/23 07:34:09;;;;;;;2.90;0.30;;;;;;;27.48;23.26;102394.75;5052180;28;20036;-69
2021/08/23 07:36:35;;;;;;;1.15;0.20;;;;;;;27.01;24.14;102394.41;5061488;28;20039;-68
2021/08/23 07:39:02;;;;;;;0.88;0.30;;;;;;;27.36;23.21;102398.50;5071576;28;20402;-69
2021/08/23 07:41:28;;;;;;;2.10;0.20;;;;;;;28.13;22.04;102392.50;5054255;28;20043;-68
2021/08/23 07:43:53;;;;;;;1.67;0.32;;;;;;;27.82;22.58;102399.81;5070071;28;20283;-68
2021/08/23 07:46:19;;;;;;;0.47;0.20;;;;;;;27.67;23.16;102406.56;5056233;28;20032;-69
2021/08/23 07:48:44;;;;;;;2.33;0.15;;;;;;;27.62;23.11;102408.81;5054660;28;20356;-69
2021/08/23 07:51:11;;;;;;;1.45;0.20;;;;;;;25.79;24.53;102409.06;5055022;28;20318;-69
2021/08/23 07:53:37;;;;;;;1.25;0.20;;;;;;;26.43;24.53;102415.47;5052475;28;20029;-68
2021/08/23 07:56:03;;;;;;;1.40;0.30;;;;;;;26.76;24.29;102418.97;5063476;28;20338;-68
2021/08/23 07:58:29;;;;;;;2.72;0.68;;;;;;;27.90;23.60;102413.41;5069505;28;20374;-69
2021/08/23 08:00:54;;;;;;;3.85;0.17;;;;;;;27.13;24.50;102421.19;5053852;28;20033;-69
2021/08/23 08:03:20;;;;;;;2.08;0.30;;;;;;;28.07;22.25;102425.28;5069392;28;20037;-69
2021/08/23 08:05:46;;;;;;;1.35;0.30;;;;;;;28.12;22.81;102427.56;5069563;28;20082;-69
2021/08/23 08:08:11;;;;;;;0.75;0.35;;;;;;;28.11;22.49;102423.16;5071702;28;20041;-69
2021/08/23 08:10:38;;;;;;;0.90;0.30;;;;;;;28.09;23.00;102427.84;5055183;28;20485;-69
2021/08/23 08:13:05;;;;;;;1.50;0.20;;;;;;;27.08;24.29;102437.66;5052467;28;20027;-69
2021/08/23 08:15:32;;;;;;;2.47;0.65;;;;;;;26.29;25.32;102430.88;5053969;28;20116;-69
2021/08/23 08:17:58;;;;;;;1.67;0.40;;;;;;;26.77;24.63;102440.28;5053901;28;20041;-69
2021/08/23 08:20:23;;;;;;;2.92;0.30;;;;;;;27.75;23.83;102441.66;5065889;28;20059;-69
2021/08/23 08:22:49;;;;;;;2.05;0.70;;;;;;;27.85;23.74;102437.16;5054089;28;20447;-69
2021/08/23 08:25:15;;;;;;;1.13;0.30;;;;;;;27.85;23.04;102442.53;5056388;28;20044;-69
2021/08/23 08:27:41;;;;;;;1.10;0.40;;;;;;;28.19;22.96;102438.59;5062300;28;20036;-69
2021/08/23 08:30:08;;;;;;;1.45;0.20;;;;;;;28.05;23.16;102432.63;5058099;28;20040;-69
2021/08/23 08:32:34;;;;;;;0.75;0.13;;;;;;;28.39;23.31;102439.47;5052108;28;20039;-69
2021/08/23 08:35:00;;;;;;;1.95;0.20;;;;;;;28.12;24.08;102430.25;5053875;28;20049;-68
2021/08/23 08:37:27;;;;;;;1.08;0.32;;;;;;;27.74;23.41;102439.94;5065095;28;20225;-69
2021/08/23 08:39:53;;;;;;;4.10;0.40;;;;;;;27.01;25.61;102440.00;5055130;28;20472;-68
2021/08/23 08:42:19;;;;;;;2.72;0.32;;;;;;;26.78;25.11;102447.38;5054081;28;20035;-69
2021/08/23 08:44:48;;;;;;;1.00;0.40;;;;;;;25.80;26.26;102434.88;5067729;28;20628;-68
2021/08/23 08:47:19;;;;;;;1.65;0.38;;;;;;;25.71;26.13;102440.13;5052169;28;20141;-69
2021/08/23 08:49:45;;;;;;;0.85;0.13;;;;;;;25.64;26.46;102450.47;5069224;28;20044;-69
2021/08/23 08:52:14;;;;;;;5.28;0.50;;;;;;;26.57;25.79;102447.31;5049031;28;20573;-69
2021/08/23 08:54:40;;;;;;;1.77;0.50;;;;;;;26.19;25.95;102448.69;5054393;28;20029;-69
2021/08/23 08:57:06;;;;;;;2.92;0.63;;;;;;;26.04;26.46;102456.13;5058722;28;20082;-69
2021/08/23 08:59:34;;;;;;;1.42;0.40;;;;;;;24.90;27.98;102456.19;5052471;28;20032;-69
2021/08/23 09:02:00;;;;;;;2.30;0.50;;;;;;;25.37;27.70;102457.00;5055585;28;20060;-68
2021/08/23 09:04:30;;;;;;;3.30;0.52;;;;;;;25.21;28.08;102448.50;5051202;28;20036;-68
2021/08/23 09:07:00;;;;;;;1.90;0.20;;;;;;;24.97;27.83;102457.47;5068259;28;20037;-68
2021/08/23 09:09:27;;;;;;;1.67;0.30;;;;;;;24.05;30.06;102445.59;5066405;28;20048;-69
2021/08/23 09:12:06;;;;;;;0.88;0.28;;;;;;;23.49;32.18;102461.19;5053999;28;20037;-68
2021/08/23 09:14:33;;;;;;;1.33;0.28;;;;;;;23.76;30.08;102461.88;5037880;28;20024;-68
2021/08/23 09:17:08;;;;;;;2.40;0.38;;;;;;;23.75;30.49;102457.53;5051911;28;20041;-68
2021/08/23 09:19:34;;;;;;;0.73;0.20;;;;;;;22.20;31.87;102449.38;5057832;28;20037;-68
2021/08/23 09:22:08;;;;;;;2.72;0.32;;;;;;;22.76;31.65;102465.25;5055750;28;20235;-71
2021/08/23 09:24:37;;;;;;;1.73;0.40;;;;;;;22.91;32.20;102466.06;5055182;28;20432;-69
2021/08/23 09:27:06;;;;;;;1.95;0.35;;;;;;;22.77;30.28;102467.84;5070563;28;20108;-69
2021/08/23 09:29:55;;;;;;;3.17;0.45;;;;;;;23.00;31.72;102466.28;5063045;28;20032;-69
2021/08/23 09:32:26;;;;;;;1.88;0.30;;;;;;;23.49;30.77;102466.53;5071289;28;20054;-69
2021/08/23 09:34:52;;;;;;;;;;;;;;;23.65;30.61;102469.81;5070878;28;20078;-69
2021/08/23 09:37:20;;;;;;;2.75;0.30;;;;;;;23.65;28.69;102466.28;5055526;28;20221;-69
2021/08/23 09:39:45;;;;;;;1.60;0.52;;;;;;;23.99;29.63;102473.63;5063963;28;20144;-68
2021/08/23 09:42:13;;;;;;;0.88;0.20;;;;;;;23.73;29.64;102470.13;5055746;28;20112;-68
2021/08/23 09:44:40;;;;;;;2.72;0.32;;;;;;;23.10;30.80;102471.00;5057948;28;20525;-68
2021/08/23 09:47:06;;;;;;;0.82;0.20;;;;;;;23.29;30.04;102475.94;5063570;28;20036;-69
2021/08/23 09:49:41;;;;;;;3.65;0.30;;;;;;;22.89;29.95;102474.16;5065921;28;20100;-69
2021/08/23 09:52:08;;;;;;;0.40;0.20;;;;;;;23.15;30.58;102474.19;5057168;28;20112;-68
2021/08/23 09:54:34;;;;;;;2.30;0.20;;;;;;;23.17;29.73;102469.59;5063568;28;20029;-68
2021/08/23 09:57:00;;;;;;;1.00;0.22;;;;;;;23.29;29.81;102474.09;5068623;28;20036;-68
2021/08/23 09:59:28;;;;;;;1.35;0.40;;;;;;;23.04;29.11;102466.06;5057801;28;20037;-68
2021/08/23 10:01:56;;;;;;;1.77;0.32;;;;;;;23.19;29.14;102476.53;5062060;28;20091;-69
2021/08/23 10:04:22;;;;;;;1.58;0.30;;;;;;;23.87;30.07;102476.31;5061937;28;20075;-69
2021/08/23 10:06:49;;;;;;;1.42;0.43;;;;;;;23.77;28.56;102473.44;5058894;28;20135;-68
2021/08/23 10:09:19;;;;;;;1.27;0.45;;;;;;;23.95;27.35;102476.63;5057110;28;20063;-69
2021/08/23 10:11:46;;;;;;;2.35;0.30;;;;;;;23.42;29.28;102476.78;5073563;28;20055;-69
2021/08/23 10:14:11;;;;;;;0.93;0.20;;;;;;;23.31;28.05;102471.34;5058503;28;20027;-69
2021/08/23 10:16:37;;;;;;;1.70;0.20;;;;;;;23.23;28.66;102477.19;5059965;28;20021;-69
2021/08/23 10:19:04;;;;;;;0.82;0.20;;;;;;;23.34;27.97;102487.13;5057273;28;20391;-69
2021/08/23 10:21:31;;;;;;;1.08;0.20;;;;;;;23.68;27.13;102482.97;5058323;28;20036;-69
2021/08/23 10:23:58;;;;;;;1.00;0.25;;;;;;;23.85;27.79;102483.56;5056553;28;20433;-68
2021/08/23 10:26:23;;;;;;;0.60;0.20;;;;;;;23.90;28.83;102486.78;5046515;28;20173;-69
2021/08/23 10:28:49;;;;;;;1.35;0.20;;;;;;;24.28;28.41;102481.34;5061588;28;20058;-68
2021/08/23 10:31:17;;;;;;;0.50;0.20;;;;;;;24.40;28.38;102491.09;5057742;28;20036;-69
2021/08/23 10:33:46;;;;;;;2.92;0.20;;;;;;;24.70;27.03;102487.13;5061127;28;20039;-69
2021/08/23 10:36:13;;;;;;;1.75;0.20;;;;;;;24.41;26.76;102487.50;5068619;28;20059;-69
2021/08/23 10:38:47;;;;;;;1.50;0.45;;;;;;;24.53;27.71;102485.72;5058414;28;20036;-69
2021/08/23 10:41:24;;;;;;;1.40;0.20;;;;;;;24.21;27.76;102491.63;5054373;28;20104;-68
2021/08/23 10:43:58;;;;;;;1.13;0.30;;;;;;;24.23;28.39;102484.31;5049906;28;20584;-69
2021/08/23 10:46:37;;;;;;;0.93;0.20;;;;;;;24.35;27.42;102489.75;5060622;28;20474;-69
2021/08/23 10:49:10;;;;;;;0.88;0.20;;;;;;;24.47;27.54;102496.88;5054138;28;20057;-69
2021/08/23 10:51:41;;;;;;;1.20;0.10;;;;;;;24.14;27.39;102493.00;5057143;28;20028;-69
2021/08/23 10:54:21;;;;;;;0.40;0.20;;;;;;;24.67;28.21;102497.22;5068765;28;20051;-69
2021/08/23 10:56:59;;;;;;;1.20;0.30;;;;;;;24.05;27.55;102488.34;5054954;28;20482;-69
2021/08/23 10:59:36;;;;;;;1.15;0.40;;;;;;;23.70;29.05;102497.06;5052052;28;20024;-69
2021/08/23 11:02:02;;;;;;;1.58;0.20;;;;;;;23.66;27.90;102497.38;5059383;28;20032;-69
2021/08/23 11:04:37;;;;;;;1.02;0.10;;;;;;;24.00;30.48;102503.84;5069628;28;20029;-69
2021/08/23 11:07:03;;;;;;;1.27;0.35;;;;;;;23.99;27.03;102504.78;5055804;28;20070;-69
2021/08/23 11:09:39;;;;;;;4.18;0.38;;;;;;;23.46;28.45;102493.44;5041933;28;20388;-68
2021/08/23 11:12:18;;;;;;;1.23;0.10;;;;;;;23.39;28.04;102496.53;5056643;28;20127;-69
2021/08/23 11:14:46;;;;;;;2.53;0.40;;;;;;;22.84;28.94;102492.28;5052594;28;20029;-69
2021/08/23 11:17:12;;;;;;;2.15;0.20;;;;;;;23.12;27.82;102509.06;5056573;28;20040;-69
2021/08/23 11:19:40;;;;;;;1.23;0.20;;;;;;;23.10;28.09;102503.84;5069540;28;20032;-68
2021/08/23 11:22:07;;;;;;;2.95;0.93;;;;;;;23.21;27.56;102503.13;5066571;28;20663;-69
2021/08/23 11:24:36;;;;;;;1.70;0.30;;;;;;;22.80;29.08;102504.09;5051638;28;20024;-68